createdAt,value
2022-10-11T00:00:13.670Z,100928.66
2022-10-11T00:03:06.310Z,100927.05
2022-10-11T00:05:38.728Z,100928.71
2022-10-11T00:08:10.789Z,100926.52
2022-10-11T00:10:43.230Z,100930.80
2022-10-11T00:13:16.060Z,100929.56
2022-10-11T00:15:49.929Z,100928.30
2022-10-11T00:18:21.883Z,100928.99
2022-10-11T00:21:04.265Z,100926.73
2022-10-11T00:23:36.493Z,100926.07
2022-10-11T00:26:11.572Z,100924.02
2022-10-11T00:28:44.318Z,100926.18
2022-10-11T00:31:18.197Z,100924.44
2022-10-11T00:33:50.408Z,100924.49
2022-10-11T00:36:22.429Z,100918.31
2022-10-11T00:38:54.589Z,100917.81
2022-10-11T00:41:28.947Z,100914.08
2022-10-11T00:44:20.325Z,100913.80
2022-10-11T00:47:03.289Z,100917.14
2022-10-11T00:49:41.508Z,100911.77
2022-10-11T00:52:18.756Z,100915.81
2022-10-11T00:54:51.720Z,100913.45
2022-10-11T00:57:26.641Z,100914.46
2022-10-11T00:59:59.242Z,100910.64
2022-10-11T01:02:32.198Z,100908.77
2022-10-11T01:05:28.243Z,100901.45
2022-10-11T01:07:58.302Z,100898.96
2022-10-11T01:10:31.278Z,100895.82
2022-10-11T01:13:10.644Z,100893.84
2022-10-11T01:15:46.780Z,100891.44
2022-10-11T01:18:23.733Z,100890.23
2022-10-11T01:21:05.889Z,100883.60
2022-10-11T01:23:55.850Z,100880.15
2022-10-11T01:26:42.729Z,100884.67
2022-10-11T01:29:26.043Z,100886.08
2022-10-11T01:32:03.557Z,100878.27
2022-10-11T01:34:40.663Z,100877.14
2022-10-11T01:37:16.544Z,100874.98
2022-10-11T01:39:52.222Z,100878.65
2022-10-11T01:42:28.830Z,100875.59
2022-10-11T01:45:02.812Z,100871.89
2022-10-11T01:47:33.697Z,100875.56
2022-10-11T01:50:08.935Z,100873.52
2022-10-11T01:52:45.244Z,100867.77
2022-10-11T01:55:22.323Z,100867.66
2022-10-11T01:58:09.132Z,100875.49
2022-10-11T02:00:48.643Z,100869.70
2022-10-11T02:03:29.181Z,100870.59
2022-10-11T02:06:06.756Z,100871.67
2022-10-11T02:08:50.095Z,100861.61
2022-10-11T02:11:26.451Z,100866.39
2022-10-11T02:14:02.109Z,100862.54
2022-10-11T02:16:38.954Z,100867.52
2022-10-11T02:19:11.828Z,100862.61
2022-10-11T02:21:47.775Z,100859.92
2022-10-11T02:24:24.427Z,100861.96
2022-10-11T02:26:59.241Z,100858.27
2022-10-11T02:29:34.361Z,100858.67
2022-10-11T02:32:07.165Z,100851.67
2022-10-11T02:34:44.183Z,100850.67
2022-10-11T02:37:24.366Z,100853.20
2022-10-11T02:40:00.045Z,100856.61
2022-10-11T02:42:36.963Z,100860.66
2022-10-11T02:45:14.825Z,100861.48
2022-10-11T02:47:47.648Z,100865.81
2022-10-11T02:50:20.852Z,100864.16
2022-10-11T02:52:53.657Z,100861.90
2022-10-11T02:55:26.001Z,100865.20
2022-10-11T02:57:59.657Z,100863.54
2022-10-11T03:00:35.168Z,100865.61
2022-10-11T03:03:07.103Z,100868.86
2022-10-11T03:05:40.939Z,100869.76
2022-10-11T03:08:14.593Z,100872.19
2022-10-11T03:10:46.690Z,100871.22
2022-10-11T03:13:20.325Z,100866.05
2022-10-11T03:16:03.408Z,100865.70
2022-10-11T03:18:38.639Z,100874.40
2022-10-11T03:21:11.420Z,100867.95
2022-10-11T03:23:44.288Z,100877.80
2022-10-11T03:26:18.217Z,100874.05
2022-10-11T03:28:50.483Z,100878.98
2022-10-11T03:31:23.801Z,100875.27
2022-10-11T03:33:55.671Z,100872.64
2022-10-11T03:36:27.728Z,100878.55
2022-10-11T03:39:00.036Z,100882.40
2022-10-11T03:41:32.271Z,100881.89
2022-10-11T03:44:04.421Z,100884.98
2022-10-11T03:46:36.364Z,100881.16
2022-10-11T03:49:09.547Z,100883.84
2022-10-11T03:51:42.390Z,100894.83
2022-10-11T03:54:15.841Z,100898.33
2022-10-11T03:56:47.831Z,100893.94
2022-10-11T03:59:21.658Z,100890.46
2022-10-11T04:01:54.438Z,100897.16
2022-10-11T04:04:26.860Z,100906.13
2022-10-11T04:06:59.093Z,100897.77
2022-10-11T04:09:33.051Z,100887.73
2022-10-11T04:12:04.124Z,100892.58
2022-10-11T04:14:36.128Z,100897.53
2022-10-11T04:17:08.461Z,100900.61
2022-10-11T04:19:40.311Z,100894.26
2022-10-11T04:22:12.925Z,100892.32
2022-10-11T04:24:44.821Z,100892.78
2022-10-11T04:27:18.178Z,100898.27
2022-10-11T04:29:51.437Z,100901.58
2022-10-11T04:32:23.755Z,100899.67
2022-10-11T04:34:56.052Z,100897.14
2022-10-11T04:37:29.874Z,100898.24
2022-10-11T04:40:04.974Z,100902.55
2022-10-11T04:42:37.391Z,100909.31
2022-10-11T04:45:11.314Z,100917.11
2022-10-11T04:47:42.554Z,100924.52
2022-10-11T04:50:14.711Z,100919.77
2022-10-11T04:52:46.890Z,100924.98
2022-10-11T04:55:19.753Z,100925.31
2022-10-11T04:57:51.996Z,100925.11
2022-10-11T05:00:24.100Z,100926.91
2022-10-11T05:02:56.784Z,100926.98
2022-10-11T05:05:28.699Z,100926.54
2022-10-11T05:08:01.338Z,100933.34
2022-10-11T05:10:33.945Z,100934.08
2022-10-11T05:13:06.539Z,100936.88
2022-10-11T05:15:39.124Z,100942.40
2022-10-11T05:18:15.966Z,100947.36
2022-10-11T05:20:47.947Z,100945.55
2022-10-11T05:23:20.015Z,100946.63
2022-10-11T05:25:52.589Z,100948.66
2022-10-11T05:28:25.831Z,100950.30
2022-10-11T05:30:57.813Z,100953.83
2022-10-11T05:33:30.096Z,100952.20
2022-10-11T05:36:02.779Z,100950.11
2022-10-11T05:38:37.782Z,100954.30
2022-10-11T05:41:11.694Z,100956.02
2022-10-11T05:43:46.047Z,100960.48
2022-10-11T05:46:19.462Z,100960.66
2022-10-11T05:48:51.524Z,100964.61
2022-10-11T05:51:23.726Z,100969.33
2022-10-11T05:53:56.335Z,100974.17
2022-10-11T05:56:28.376Z,100976.34
2022-10-11T05:59:02.496Z,100977.31
2022-10-11T06:01:35.082Z,100978.73
2022-10-11T06:04:08.455Z,100980.34
2022-10-11T06:06:40.389Z,100978.09
2022-10-11T06:09:12.771Z,100979.78
2022-10-11T06:11:45.619Z,100980.75
2022-10-11T06:14:17.685Z,100989.77
2022-10-11T06:16:49.522Z,100999.38
2022-10-11T06:19:21.537Z,101004.89
2022-10-11T06:21:54.294Z,101008.52
2022-10-11T06:24:29.166Z,101006.50
2022-10-11T06:27:05.981Z,101008.92
2022-10-11T06:29:40.181Z,101020.67
2022-10-11T06:32:16.589Z,101029.53
2022-10-11T06:34:49.268Z,101035.86
2022-10-11T06:37:23.105Z,101038.27
2022-10-11T06:39:59.547Z,101042.54
2022-10-11T06:42:32.492Z,101047.07
2022-10-11T06:45:05.452Z,101042.02
2022-10-11T06:47:37.794Z,101045.19
2022-10-11T06:50:13.831Z,101052.52
2022-10-11T06:52:49.269Z,101053.11
2022-10-11T06:55:21.337Z,101051.20
2022-10-11T06:57:53.954Z,101054.36
2022-10-11T07:00:26.719Z,101060.38
2022-10-11T07:02:58.634Z,101061.02
2022-10-11T07:05:32.694Z,101065.71
2022-10-11T07:08:04.955Z,101071.79
2022-10-11T07:10:38.075Z,101074.92
2022-10-11T07:13:16.295Z,101080.16
2022-10-11T07:15:49.415Z,101080.98
2022-10-11T07:18:28.056Z,101083.27
2022-10-11T07:21:03.416Z,101087.08
2022-10-11T07:23:42.103Z,101092.46
2022-10-11T07:26:15.294Z,101094.16
2022-10-11T07:28:47.698Z,101102.09
2022-10-11T07:31:22.248Z,101107.52
2022-10-11T07:33:55.987Z,101116.64
2022-10-11T07:36:28.698Z,101123.45
2022-10-11T07:39:00.982Z,101130.14
2022-10-11T07:41:33.958Z,101127.73
2022-10-11T07:44:06.523Z,101133.58
2022-10-11T07:46:38.837Z,101135.56
2022-10-11T07:49:10.894Z,101138.55
2022-10-11T07:51:42.939Z,101142.95
2022-10-11T07:54:15.639Z,101141.41
2022-10-11T07:56:47.832Z,101146.23
2022-10-11T07:59:19.736Z,101149.73
2022-10-11T08:01:53.660Z,101148.39
2022-10-11T08:04:26.530Z,101153.04
2022-10-11T08:06:59.616Z,101152.64
2022-10-11T08:09:32.762Z,101153.79
2022-10-11T08:12:18.456Z,101157.46
2022-10-11T08:14:56.001Z,101155.41
2022-10-11T08:17:28.862Z,101158.48
2022-10-11T08:20:01.016Z,101164.35
2022-10-11T08:22:32.883Z,101164.84
2022-10-11T08:25:05.731Z,101167.41
2022-10-11T08:27:37.747Z,101169.85
2022-10-11T08:30:13.766Z,101172.11
2022-10-11T08:32:45.971Z,101176.37
2022-10-11T08:35:18.418Z,101178.10
2022-10-11T08:37:51.397Z,101174.42
2022-10-11T08:40:24.862Z,101172.67
2022-10-11T08:43:01.817Z,101172.67
2022-10-11T08:45:36.911Z,101175.84
2022-10-11T08:48:14.611Z,101176.79
2022-10-11T08:50:51.796Z,101180.73
2022-10-11T08:53:29.969Z,101183.02
2022-10-11T08:56:04.806Z,101182.56
2022-10-11T08:58:45.296Z,101183.30
2022-10-11T09:01:22.837Z,101185.72
2022-10-11T09:04:00.416Z,101189.05
2022-10-11T09:06:42.836Z,101185.72
2022-10-11T09:09:27.708Z,101189.64
2022-10-11T09:12:10.460Z,101187.41
2022-10-11T09:15:06.346Z,101192.40
2022-10-11T09:17:59.884Z,101186.64
2022-10-11T09:21:04.631Z,101196.88
2022-10-11T09:23:45.413Z,101194.98
2022-10-11T09:26:29.127Z,101202.70
2022-10-11T09:29:07.876Z,101202.35
2022-10-11T09:31:40.798Z,101209.72
2022-10-11T09:34:15.689Z,101208.13
2022-10-11T09:36:55.405Z,101212.77
2022-10-11T09:39:33.335Z,101213.13
2022-10-11T09:42:10.007Z,101215.95
2022-10-11T09:44:47.520Z,101214.88
2022-10-11T09:47:23.126Z,101216.80
2022-10-11T09:50:00.231Z,101218.21
2022-10-11T09:52:56.050Z,101225.11
2022-10-11T09:55:44.952Z,101227.36
2022-10-11T09:58:31.637Z,101232.66
2022-10-11T10:01:08.249Z,101231.05
2022-10-11T10:03:42.378Z,101232.10
2022-10-11T10:06:18.257Z,101232.98
2022-10-11T10:08:51.147Z,101232.86
2022-10-11T10:11:29.410Z,101233.95
2022-10-11T10:14:02.504Z,101238.39
2022-10-11T10:16:35.914Z,101242.17
2022-10-11T10:19:17.151Z,101238.22
2022-10-11T10:21:50.800Z,101239.49
2022-10-11T10:24:27.013Z,101241.05
2022-10-11T10:27:21.167Z,101237.33
2022-10-11T10:30:17.148Z,101237.38
2022-10-11T10:33:00.131Z,101237.44
2022-10-11T10:35:37.329Z,101234.05
2022-10-11T10:38:26.615Z,101240.38
2022-10-11T10:41:01.041Z,101241.94
2022-10-11T10:43:33.057Z,101245.05
2022-10-11T10:46:26.729Z,101253.09
2022-10-11T10:52:07.523Z,101248.97
2022-10-11T10:54:45.578Z,101249.91
2022-10-11T10:57:22.305Z,101252.52
2022-10-11T11:00:11.053Z,101252.48
2022-10-11T11:02:48.597Z,101255.28
2022-10-11T11:05:35.365Z,101257.04
2022-10-11T11:14:39.672Z,101267.79
2022-10-11T11:17:33.223Z,101271.80
2022-10-11T11:23:41.205Z,101271.73
2022-10-11T11:26:19.543Z,101269.39
2022-10-11T11:29:22.503Z,101271.26
2022-10-11T11:32:04.188Z,101277.40
2022-10-11T11:34:37.460Z,101278.86
2022-10-11T11:37:09.656Z,101283.23
2022-10-11T11:39:43.786Z,101285.54
2022-10-11T11:42:17.839Z,101284.11
2022-10-11T11:44:46.813Z,101285.14
2022-10-11T11:47:21.039Z,101289.89
2022-10-11T11:49:53.360Z,101287.73
2022-10-11T11:52:27.521Z,101288.92
2022-10-11T11:55:04.165Z,101288.57
2022-10-11T11:57:45.199Z,101286.89
2022-10-11T12:00:17.750Z,101290.96
2022-10-11T12:02:51.662Z,101294.60
2022-10-11T12:05:27.901Z,101293.45
2022-10-11T12:08:00.737Z,101297.52
2022-10-11T12:10:33.499Z,101298.63
2022-10-11T12:13:08.587Z,101301.63
2022-10-11T12:15:37.254Z,101301.43
2022-10-11T12:18:15.129Z,101304.36
2022-10-11T12:20:45.232Z,101303.65
2022-10-11T12:23:48.946Z,101299.10
2022-10-11T12:26:34.194Z,101300.30
2022-10-11T12:29:42.697Z,101306.98
2022-10-11T12:32:50.610Z,101301.65
2022-10-11T12:35:55.715Z,101300.11
2022-10-11T12:38:24.453Z,101301.90
2022-10-11T12:40:59.829Z,101299.66
2022-10-11T12:44:00.144Z,101305.82
2022-10-11T12:46:45.846Z,101304.69
2022-10-11T12:49:25.425Z,101308.54
2022-10-11T12:52:01.377Z,101313.41
2022-10-11T12:54:59.754Z,101316.25
2022-10-11T12:57:51.241Z,101320.31
2022-10-11T13:00:30.637Z,101322.15
2022-10-11T13:03:03.870Z,101322.30
2022-10-11T13:05:44.937Z,101320.70
2022-10-11T13:08:16.443Z,101322.49
2022-10-11T13:10:49.562Z,101322.77
2022-10-11T13:13:22.219Z,101322.83
2022-10-11T13:15:53.762Z,101323.69
2022-10-11T13:18:24.258Z,101321.25
2022-10-11T13:20:54.179Z,101323.63
2022-10-11T13:23:25.043Z,101322.66
2022-10-11T13:25:53.984Z,101324.00
2022-10-11T13:28:23.396Z,101327.48
2022-10-11T13:30:55.777Z,101327.09
2022-10-11T13:33:31.607Z,101329.30
2022-10-11T13:36:03.803Z,101324.58
2022-10-11T13:38:35.632Z,101327.02
2022-10-11T13:41:07.721Z,101331.14
2022-10-11T13:43:37.480Z,101335.96
2022-10-11T13:46:16.331Z,101332.80
2022-10-11T13:48:45.179Z,101332.83
2022-10-11T13:51:18.296Z,101338.70
2022-10-11T13:53:59.632Z,101341.50
2022-10-11T13:56:30.216Z,101341.61
2022-10-11T13:59:00.102Z,101340.70
2022-10-11T14:01:35.385Z,101344.43
2022-10-11T14:04:12.574Z,101346.11
2022-10-11T14:06:44.756Z,101345.68
2022-10-11T14:09:25.277Z,101346.60
2022-10-11T14:11:56.626Z,101353.09
2022-10-11T14:14:44.419Z,101352.30
2022-10-11T14:17:34.724Z,101356.20
2022-10-11T14:20:18.299Z,101351.47
2022-10-11T14:22:48.027Z,101353.48
2022-10-11T14:25:29.045Z,101351.91
2022-10-11T14:28:11.498Z,101351.93
2022-10-11T14:31:03.832Z,101354.05
2022-10-11T14:33:37.442Z,101354.02
2022-10-11T14:36:20.622Z,101354.52
2022-10-11T14:39:28.067Z,101359.15
2022-10-11T14:42:06.226Z,101355.69
2022-10-11T14:44:37.584Z,101356.77
2022-10-11T14:47:10.807Z,101358.83
2022-10-11T14:49:42.490Z,101361.64
2022-10-11T14:52:13.537Z,101363.15
2022-10-11T14:54:44.228Z,101361.89
2022-10-11T14:57:13.769Z,101364.77
2022-10-11T14:59:45.530Z,101365.33
2022-10-11T15:02:21.713Z,101371.98
2022-10-11T15:04:51.036Z,101376.34
2022-10-11T15:07:23.773Z,101376.73
2022-10-11T15:09:55.575Z,101377.41
2022-10-11T15:12:25.899Z,101384.59
2022-10-11T15:14:54.463Z,101382.22
2022-10-11T15:17:27.117Z,101386.20
2022-10-11T15:19:55.647Z,101386.55
2022-10-11T15:22:24.612Z,101386.56
2022-10-11T15:24:53.945Z,101388.86
2022-10-11T15:27:25.910Z,101389.54
2022-10-11T15:29:57.104Z,101393.11
2022-10-11T15:32:27.129Z,101394.36
2022-10-11T15:34:56.374Z,101397.89
2022-10-11T15:37:26.309Z,101400.74
2022-10-11T15:39:55.136Z,101408.19
2022-10-11T15:42:23.653Z,101406.98
2022-10-11T15:44:53.685Z,101412.33
2022-10-11T15:47:31.905Z,101413.95
2022-10-11T15:50:15.077Z,101413.65
2022-10-11T15:52:44.106Z,101416.89
2022-10-11T15:55:16.035Z,101422.94
2022-10-11T15:57:44.776Z,101427.39
2022-10-11T16:00:24.307Z,101429.23
2022-10-11T16:02:57.197Z,101431.11
2022-10-11T16:05:27.709Z,101431.42
2022-10-11T16:07:58.340Z,101436.48
2022-10-11T16:10:30.252Z,101439.33
2022-10-11T16:13:02.793Z,101440.16
2022-10-11T16:15:42.423Z,101446.23
2022-10-11T16:18:21.987Z,101447.09
2022-10-11T16:20:52.611Z,101454.92
2022-10-11T16:23:23.070Z,101457.00
2022-10-11T16:25:58.976Z,101458.09
2022-10-11T16:28:35.029Z,101461.75
2022-10-11T16:31:25.447Z,101463.38
2022-10-11T16:33:58.043Z,101464.36
2022-10-11T16:36:36.593Z,101464.94
2022-10-11T16:39:13.850Z,101465.94
2022-10-11T16:41:45.286Z,101464.08
2022-10-11T16:44:26.412Z,101464.69
2022-10-11T16:46:58.456Z,101466.30
2022-10-11T16:49:33.473Z,101465.73
2022-10-11T16:52:05.741Z,101468.09
2022-10-11T16:54:35.613Z,101467.54
2022-10-11T16:57:11.369Z,101469.73
2022-10-11T16:59:41.168Z,101475.60
2022-10-11T17:02:16.984Z,101473.13
2022-10-11T17:04:46.844Z,101477.91
2022-10-11T17:07:17.339Z,101477.89
2022-10-11T17:09:48.255Z,101478.56
2022-10-11T17:12:18.694Z,101479.44
2022-10-11T17:14:51.050Z,101484.05
2022-10-11T17:17:20.815Z,101485.69
2022-10-11T17:19:49.954Z,101486.64
2022-10-11T17:22:22.502Z,101487.31
2022-10-11T17:24:51.537Z,101491.84
2022-10-11T17:27:20.935Z,101490.73
2022-10-11T17:29:49.702Z,101486.12
2022-10-11T17:32:18.259Z,101493.42
2022-10-11T17:34:47.133Z,101493.69
2022-10-11T17:37:16.101Z,101495.98
2022-10-11T17:39:44.626Z,101492.84
2022-10-11T17:42:13.984Z,101496.70
2022-10-11T17:44:42.504Z,101498.11
2022-10-11T17:47:13.155Z,101495.91
2022-10-11T17:49:42.713Z,101498.25
2022-10-11T17:52:13.248Z,101497.23
2022-10-11T17:54:41.709Z,101500.29
2022-10-11T17:57:10.513Z,101495.17
2022-10-11T17:59:39.629Z,101498.14
2022-10-11T18:02:10.316Z,101499.93
2022-10-11T18:04:38.796Z,101500.91
2022-10-11T18:07:10.024Z,101500.52
2022-10-11T18:09:40.470Z,101503.98
2022-10-11T18:12:09.484Z,101506.11
2022-10-11T18:14:46.629Z,101508.06
2022-10-11T18:17:22.033Z,101508.57
2022-10-11T18:19:52.866Z,101510.33
2022-10-11T18:22:22.070Z,101509.40
2022-10-11T18:24:51.066Z,101509.14
2022-10-11T18:27:20.062Z,101511.58
2022-10-11T18:29:49.959Z,101511.05
2022-10-11T18:32:19.566Z,101509.21
2022-10-11T18:34:48.437Z,101509.11
2022-10-11T18:37:18.367Z,101514.45
2022-10-11T18:39:47.470Z,101517.56
2022-10-11T18:42:17.350Z,101520.21
2022-10-11T18:44:47.254Z,101522.84
2022-10-11T18:47:17.020Z,101522.98
2022-10-11T18:49:46.118Z,101527.27
2022-10-11T18:52:15.548Z,101527.05
2022-10-11T18:54:45.342Z,101527.60
2022-10-11T18:57:15.028Z,101533.93
2022-10-11T18:59:45.970Z,101531.71
2022-10-11T19:02:14.656Z,101530.94
2022-10-11T19:04:47.031Z,101532.42
2022-10-11T19:07:18.000Z,101531.09
2022-10-11T19:09:52.298Z,101532.73
2022-10-11T19:12:25.108Z,101536.20
2022-10-11T19:14:54.346Z,101538.30
2022-10-11T19:17:22.929Z,101536.08
2022-10-11T19:19:51.503Z,101538.81
2022-10-11T19:22:19.914Z,101538.33
2022-10-11T19:24:48.373Z,101536.96
2022-10-11T19:27:17.207Z,101543.61
2022-10-11T19:29:46.672Z,101548.44
2022-10-11T19:32:15.919Z,101550.70
2022-10-11T19:34:44.377Z,101550.77
2022-10-11T19:37:13.031Z,101550.41
2022-10-11T19:39:41.631Z,101550.67
2022-10-11T19:42:10.300Z,101551.77
2022-10-11T19:44:39.753Z,101554.36
2022-10-11T19:47:09.464Z,101554.06
2022-10-11T19:49:37.838Z,101554.47
2022-10-11T19:52:06.350Z,101554.37
2022-10-11T19:54:34.789Z,101554.66
2022-10-11T19:57:03.652Z,101551.79
2022-10-11T19:59:32.194Z,101556.02
2022-10-11T20:02:00.666Z,101558.20
2022-10-11T20:07:17.659Z,101557.09
2022-10-11T20:09:46.100Z,101564.98
2022-10-11T20:12:15.027Z,101563.72
2022-10-11T20:14:44.071Z,101560.80
2022-10-11T20:17:12.655Z,101565.48
2022-10-11T20:19:41.754Z,101571.48
2022-10-11T20:22:10.117Z,101569.71
2022-10-11T20:24:39.222Z,101570.18
2022-10-11T20:27:07.773Z,101567.84
2022-10-11T20:29:36.887Z,101572.90
2022-10-11T20:32:05.330Z,101572.56
2022-10-11T20:34:39.115Z,101574.05
2022-10-11T20:37:07.791Z,101575.21
2022-10-11T20:39:36.365Z,101579.04
2022-10-11T20:42:05.247Z,101575.77
2022-10-11T20:44:34.060Z,101579.00
2022-10-11T20:47:04.177Z,101574.28
2022-10-11T20:49:33.254Z,101576.19
2022-10-11T20:52:01.969Z,101576.38
2022-10-11T20:54:31.217Z,101578.42
2022-10-11T20:57:00.129Z,101577.72
2022-10-11T20:59:28.979Z,101578.98
2022-10-11T21:01:57.917Z,101579.70
2022-10-11T21:04:26.899Z,101580.65
2022-10-11T21:06:55.556Z,101581.94
2022-10-11T21:09:24.779Z,101585.38
2022-10-11T21:11:53.292Z,101587.11
2022-10-11T21:14:22.005Z,101584.21
2022-10-11T21:16:50.739Z,101584.94
2022-10-11T21:19:20.426Z,101583.71
2022-10-11T21:21:53.499Z,101584.58
2022-10-11T21:24:23.303Z,101585.73
2022-10-11T21:26:54.868Z,101584.32
2022-10-11T21:29:25.667Z,101587.30
2022-10-11T21:31:54.282Z,101585.54
2022-10-11T21:34:22.861Z,101587.24
2022-10-11T21:36:51.205Z,101589.58
2022-10-11T21:39:19.815Z,101590.60
2022-10-11T21:41:49.504Z,101589.04
2022-10-11T21:44:20.051Z,101592.63
2022-10-11T21:49:38.334Z,101595.83
2022-10-11T21:52:06.896Z,101599.23
2022-10-11T21:54:35.583Z,101600.60
2022-10-11T21:57:04.283Z,101594.39
2022-10-11T21:59:33.104Z,101602.02
2022-10-11T22:02:02.278Z,101598.95
2022-10-11T22:04:30.775Z,101598.58
2022-10-11T22:06:59.583Z,101597.59
2022-10-11T22:09:29.291Z,101595.01
2022-10-11T22:11:58.135Z,101598.61
2022-10-11T22:14:27.098Z,101599.02
2022-10-11T22:16:55.511Z,101597.46
2022-10-11T22:19:24.115Z,101598.95
2022-10-11T22:21:52.473Z,101598.27
2022-10-11T22:24:20.997Z,101602.34
2022-10-11T22:26:49.746Z,101603.95
2022-10-11T22:29:18.503Z,101601.14
2022-10-11T22:31:47.003Z,101601.86
2022-10-11T22:34:15.301Z,101601.25
2022-10-11T22:36:44.911Z,101601.02
2022-10-11T22:39:13.339Z,101606.98
2022-10-11T22:41:41.710Z,101609.98
2022-10-11T22:44:10.511Z,101616.34
2022-10-11T22:46:39.047Z,101615.49
2022-10-11T22:49:07.628Z,101612.25
2022-10-11T22:51:36.188Z,101615.73
2022-10-11T22:54:05.786Z,101618.29
2022-10-11T22:56:34.274Z,101619.52
2022-10-11T22:59:06.052Z,101622.66
2022-10-11T23:01:34.582Z,101618.45
2022-10-11T23:04:04.749Z,101623.23
2022-10-11T23:06:34.479Z,101620.27
2022-10-11T23:09:02.899Z,101619.20
2022-10-11T23:11:31.464Z,101620.06
2022-10-11T23:14:00.193Z,101618.29
2022-10-11T23:16:28.977Z,101613.36
2022-10-11T23:18:58.067Z,101620.71
2022-10-11T23:21:27.023Z,101622.35
2022-10-11T23:23:55.654Z,101619.71
2022-10-11T23:26:24.750Z,101620.46
2022-10-11T23:28:54.971Z,101620.33
2022-10-11T23:31:23.479Z,101622.86
2022-10-11T23:33:56.764Z,101624.23
2022-10-11T23:36:26.691Z,101624.75
2022-10-11T23:38:56.696Z,101626.23
2022-10-11T23:41:28.364Z,101626.14
2022-10-11T23:43:59.984Z,101629.80
2022-10-11T23:46:30.920Z,101630.39
2022-10-11T23:48:59.871Z,101629.48
2022-10-11T23:51:30.776Z,101630.95
2022-10-11T23:53:59.198Z,101631.23
2022-10-11T23:56:28.980Z,101634.23
2022-10-11T23:58:58.100Z,101636.03
